69VA weather

Meadow Farm Airport
Ashland, Virginia, United States

Public forecast

Using degrees Fahrenheit for public forecast. Weather courtesy of forecast.io.

METAR (pilot weather report)

Closest report is Hanover County Municipal Airport, 8.9 nm (16.5 km) S. Retrieved 2019/03/20 17:54 UTC (1 hour ago):

KOFP 201754Z AUTO 07007KT 10SM CLR 13/M05 A3030 RMK AO2 SLP262 T01331050 10133 21011 58031

TAF (pilot weather forecast)

Closest forecast is Richmond International Airport, 21.7 nm (40.1 km) SSE. Retrieved 2019/03/20 18:42 UTC (14 minutes ago):

TAF KRIC 201739Z 2018/2118 09008KT P6SM BKN060 FM210000 08005KT 6SM -SHRA OVC025 FM210300 06006KT 4SM RA OVC007 FM210900 07005KT 2SM RA OVC004 FM211300 09007KT 5SM -SHRA OVC007 FM211600 15005KT P6SM OVC015